sensor_id;sensor_type;location;lat;lon;timestamp;pressure;altitude;pressure_sealevel;temperature;humidity
11680;BME280;5896;42.686;23.142;2024-01-30T00:02:16;94969.13;;;-4.32;76.84
11680;BME280;5896;42.686;23.142;2024-01-30T00:04:41;94961.56;;;-4.32;76.69
11680;BME280;5896;42.686;23.142;2024-01-30T00:07:07;94970.69;;;-3.98;76.42
11680;BME280;5896;42.686;23.142;2024-01-30T00:09:32;94972.66;;;-3.87;75.32
11680;BME280;5896;42.686;23.142;2024-01-30T00:11:58;94968.66;;;-3.92;75.34
11680;BME280;5896;42.686;23.142;2024-01-30T00:14:23;94970.53;;;-3.95;75.29
11680;BME280;5896;42.686;23.142;2024-01-30T00:16:48;94973.66;;;-3.90;75.14
11680;BME280;5896;42.686;23.142;2024-01-30T00:19:14;94971.19;;;-3.92;75.45
11680;BME280;5896;42.686;23.142;2024-01-30T00:21:39;94972.91;;;-3.92;75.29
11680;BME280;5896;42.686;23.142;2024-01-30T00:24:05;94977.69;;;-3.87;74.59
11680;BME280;5896;42.686;23.142;2024-01-30T00:26:30;94974.91;;;-3.83;74.16
11680;BME280;5896;42.686;23.142;2024-01-30T00:28:56;94975.19;;;-3.87;74.41
11680;BME280;5896;42.686;23.142;2024-01-30T00:31:21;94973.66;;;-3.90;74.78
11680;BME280;5896;42.686;23.142;2024-01-30T00:33:47;94971.19;;;-3.92;74.76
11680;BME280;5896;42.686;23.142;2024-01-30T00:36:12;94974.88;;;-3.97;75.08
11680;BME280;5896;42.686;23.142;2024-01-30T00:38:38;94979.00;;;-4.28;76.28
11680;BME280;5896;42.686;23.142;2024-01-30T00:41:03;94970.94;;;-4.19;76.22
11680;BME280;5896;42.686;23.142;2024-01-30T00:43:28;94962.47;;;-4.18;75.67
11680;BME280;5896;42.686;23.142;2024-01-30T00:45:55;94966.31;;;-4.10;75.28
11680;BME280;5896;42.686;23.142;2024-01-30T00:48:20;94959.00;;;-4.15;75.78
11680;BME280;5896;42.686;23.142;2024-01-30T00:50:46;94967.69;;;-4.21;76.04
11680;BME280;5896;42.686;23.142;2024-01-30T00:53:11;94965.09;;;-4.19;75.62
11680;BME280;5896;42.686;23.142;2024-01-30T00:55:37;94961.56;;;-4.32;76.12
11680;BME280;5896;42.686;23.142;2024-01-30T00:58:02;94959.44;;;-4.56;78.06
11680;BME280;5896;42.686;23.142;2024-01-30T01:00:28;94964.97;;;-4.49;77.62
11680;BME280;5896;42.686;23.142;2024-01-30T01:03:00;94961.41;;;-4.45;77.17
11680;BME280;5896;42.686;23.142;2024-01-30T01:05:26;94958.13;;;-4.47;76.96
11680;BME280;5896;42.686;23.142;2024-01-30T01:07:52;94958.13;;;-4.47;76.89
11680;BME280;5896;42.686;23.142;2024-01-30T01:10:17;94959.03;;;-4.48;76.84
11680;BME280;5896;42.686;23.142;2024-01-30T01:12:43;94953.44;;;-4.53;76.79
11680;BME280;5896;42.686;23.142;2024-01-30T01:15:09;94959.44;;;-4.56;76.96
11680;BME280;5896;42.686;23.142;2024-01-30T01:17:35;94956.19;;;-4.58;77.47
11680;BME280;5896;42.686;23.142;2024-01-30T01:20:01;94948.13;;;-4.65;77.63
11680;BME280;5896;42.686;23.142;2024-01-30T01:22:27;94948.63;;;-4.58;77.52
11680;BME280;5896;42.686;23.142;2024-01-30T01:24:52;94958.53;;;-4.55;77.70
11680;BME280;5896;42.686;23.142;2024-01-30T01:27:17;94950.00;;;-4.52;77.61
11680;BME280;5896;42.686;23.142;2024-01-30T01:29:43;94941.34;;;-4.47;77.58
11680;BME280;5896;42.686;23.142;2024-01-30T01:32:08;94949.38;;;-4.40;77.67
11680;BME280;5896;42.686;23.142;2024-01-30T01:34:34;94950.03;;;-4.36;77.63
11680;BME280;5896;42.686;23.142;2024-01-30T01:36:59;94951.03;;;-4.23;76.56
11680;BME280;5896;42.686;23.142;2024-01-30T01:39:25;94953.56;;;-4.23;77.38
11680;BME280;5896;42.686;23.142;2024-01-30T01:41:50;94949.47;;;-4.10;76.59
11680;BME280;5896;42.686;23.142;2024-01-30T01:44:17;94950.38;;;-4.11;76.77
11680;BME280;5896;42.686;23.142;2024-01-30T01:46:42;94943.84;;;-3.99;76.90
11680;BME280;5896;42.686;23.142;2024-01-30T01:49:08;94952.00;;;-4.26;78.41
11680;BME280;5896;42.686;23.142;2024-01-30T01:51:35;94941.91;;;-4.26;76.94
11680;BME280;5896;42.686;23.142;2024-01-30T01:54:04;94947.75;;;-4.09;75.64
11680;BME280;5896;42.686;23.142;2024-01-30T01:56:31;94947.50;;;-4.36;76.03
11680;BME280;5896;42.686;23.142;2024-01-30T01:59:04;94958.78;;;-4.44;76.62
11680;BME280;5896;42.686;23.142;2024-01-30T02:01:31;94958.09;;;-4.30;75.78
11680;BME280;5896;42.686;23.142;2024-01-30T02:03:58;94956.97;;;-4.24;75.82
11680;BME280;5896;42.686;23.142;2024-01-30T02:06:24;94954.66;;;-4.45;75.80
11680;BME280;5896;42.686;23.142;2024-01-30T02:08:49;94962.63;;;-4.36;76.15
11680;BME280;5896;42.686;23.142;2024-01-30T02:11:15;94954.72;;;-4.62;77.80
11680;BME280;5896;42.686;23.142;2024-01-30T02:13:42;94951.69;;;-4.35;76.72
11680;BME280;5896;42.686;23.142;2024-01-30T02:16:07;94948.09;;;-4.31;76.30
11680;BME280;5896;42.686;23.142;2024-01-30T02:18:32;94955.41;;;-4.43;76.91
11680;BME280;5896;42.686;23.142;2024-01-30T02:20:59;94945.00;;;-4.21;76.14
11680;BME280;5896;42.686;23.142;2024-01-30T02:23:30;94953.16;;;-4.16;75.65
11680;BME280;5896;42.686;23.142;2024-01-30T02:25:55;94947.84;;;-4.11;75.14
11680;BME280;5896;42.686;23.142;2024-01-30T02:28:21;94948.50;;;-4.39;75.61
11680;BME280;5896;42.686;23.142;2024-01-30T02:30:46;94945.13;;;-4.55;76.02
11680;BME280;5896;42.686;23.142;2024-01-30T02:33:12;94946.94;;;-4.57;76.73
11680;BME280;5896;42.686;23.142;2024-01-30T02:35:38;94947.66;;;-4.40;76.31
11680;BME280;5896;42.686;23.142;2024-01-30T02:38:04;94954.91;;;-4.33;76.70
11680;BME280;5896;42.686;23.142;2024-01-30T02:40:30;94944.94;;;-4.19;76.14
11680;BME280;5896;42.686;23.142;2024-01-30T02:42:56;94948.41;;;-4.06;75.20
11680;BME280;5896;42.686;23.142;2024-01-30T02:45:21;94948.00;;;-4.14;75.51
11680;BME280;5896;42.686;23.142;2024-01-30T02:47:47;94948.66;;;-4.26;75.98
11680;BME280;5896;42.686;23.142;2024-01-30T02:50:12;94945.09;;;-4.22;75.99
11680;BME280;5896;42.686;23.142;2024-01-30T02:52:38;94940.13;;;-4.08;75.53
11680;BME280;5896;42.686;23.142;2024-01-30T02:55:04;94946.06;;;-4.09;75.88
11680;BME280;5896;42.686;23.142;2024-01-30T02:57:29;94949.88;;;-4.02;75.57
11680;BME280;5896;42.686;23.142;2024-01-30T02:59:54;94946.38;;;-3.99;75.79
11680;BME280;5896;42.686;23.142;2024-01-30T03:02:20;94947.75;;;-4.09;76.58
11680;BME280;5896;42.686;23.142;2024-01-30T03:04:45;94949.72;;;-3.99;75.84
11680;BME280;5896;42.686;23.142;2024-01-30T03:07:11;94945.59;;;-4.16;76.58
11680;BME280;5896;42.686;23.142;2024-01-30T03:09:36;94947.38;;;-3.86;75.32
11680;BME280;5896;42.686;23.142;2024-01-30T03:12:03;94939.50;;;-3.65;74.58
11680;BME280;5896;42.686;23.142;2024-01-30T03:14:30;94942.13;;;-3.67;74.14
11680;BME280;5896;42.686;23.142;2024-01-30T03:16:56;94935.91;;;-3.61;73.46
11680;BME280;5896;42.686;23.142;2024-01-30T03:19:21;94927.22;;;-3.56;73.07
11680;BME280;5896;42.686;23.142;2024-01-30T03:21:47;94936.34;;;-3.39;72.50
11680;BME280;5896;42.686;23.142;2024-01-30T03:24:12;94934.16;;;-3.45;71.37
11680;BME280;5896;42.686;23.142;2024-01-30T03:26:37;94934.00;;;-3.42;71.69
11680;BME280;5896;42.686;23.142;2024-01-30T03:29:03;94930.50;;;-3.39;71.55
11680;BME280;5896;42.686;23.142;2024-01-30T03:31:28;94921.75;;;-3.34;71.15
11680;BME280;5896;42.686;23.142;2024-01-30T03:33:54;94929.03;;;-3.44;71.15
11680;BME280;5896;42.686;23.142;2024-01-30T03:36:19;94925.63;;;-3.43;71.42
11680;BME280;5896;42.686;23.142;2024-01-30T03:38:45;94922.13;;;-3.40;70.51
11680;BME280;5896;42.686;23.142;2024-01-30T03:41:10;94924.53;;;-3.38;69.51
11680;BME280;5896;42.686;23.142;2024-01-30T03:43:36;94919.16;;;-3.32;70.07
11680;BME280;5896;42.686;23.142;2024-01-30T03:46:02;94915.50;;;-3.43;69.20
11680;BME280;5896;42.686;23.142;2024-01-30T03:48:28;94911.22;;;-3.40;68.96
11680;BME280;5896;42.686;23.142;2024-01-30T03:50:54;94913.91;;;-3.44;69.11
11680;BME280;5896;42.686;23.142;2024-01-30T03:53:20;94918.47;;;-3.50;69.17
11680;BME280;5896;42.686;23.142;2024-01-30T03:55:45;94916.75;;;-3.50;69.70
11680;BME280;5896;42.686;23.142;2024-01-30T03:58:10;94912.34;;;-3.46;69.14
11680;BME280;5896;42.686;23.142;2024-01-30T04:00:36;94912.34;;;-3.46;68.75
11680;BME280;5896;42.686;23.142;2024-01-30T04:03:01;94915.13;;;-3.51;68.89
11680;BME280;5896;42.686;23.142;2024-01-30T04:05:27;94902.34;;;-3.48;69.50
11680;BME280;5896;42.686;23.142;2024-01-30T04:07:52;94910.09;;;-3.51;69.26
11680;BME280;5896;42.686;23.142;2024-01-30T04:10:17;94914.00;;;-3.61;69.48
11680;BME280;5896;42.686;23.142;2024-01-30T04:12:43;94909.88;;;-3.62;69.50
11680;BME280;5896;42.686;23.142;2024-01-30T04:15:08;94915.41;;;-3.55;69.66
11680;BME280;5896;42.686;23.142;2024-01-30T04:17:35;94910.78;;;-3.63;69.24
11680;BME280;5896;42.686;23.142;2024-01-30T04:20:00;94906.66;;;-3.50;69.32
11680;BME280;5896;42.686;23.142;2024-01-30T04:22:25;94910.09;;;-3.51;68.45
11680;BME280;5896;42.686;23.142;2024-01-30T04:24:51;94911.59;;;-3.62;68.51
11680;BME280;5896;42.686;23.142;2024-01-30T04:27:16;94913.72;;;-3.71;69.38
11680;BME280;5896;42.686;23.142;2024-01-30T04:29:42;94917.78;;;-3.68;69.44
11680;BME280;5896;42.686;23.142;2024-01-30T04:32:07;94924.78;;;-3.73;69.74
11680;BME280;5896;42.686;23.142;2024-01-30T04:34:33;94926.03;;;-3.80;69.67
11680;BME280;5896;42.686;23.142;2024-01-30T04:36:58;94917.91;;;-3.85;69.65
11680;BME280;5896;42.686;23.142;2024-01-30T04:39:24;94935.63;;;-3.71;69.55
11680;BME280;5896;42.686;23.142;2024-01-30T04:41:49;94927.06;;;-3.69;69.83
11680;BME280;5896;42.686;23.142;2024-01-30T04:44:14;94930.22;;;-3.65;69.88
11680;BME280;5896;42.686;23.142;2024-01-30T04:46:40;94927.88;;;-3.68;69.33
11680;BME280;5896;42.686;23.142;2024-01-30T04:49:05;94928.06;;;-3.71;69.57
11680;BME280;5896;42.686;23.142;2024-01-30T04:51:33;94938.75;;;-3.68;69.69
11680;BME280;5896;42.686;23.142;2024-01-30T04:53:58;94945.31;;;-3.63;69.76
11680;BME280;5896;42.686;23.142;2024-01-30T04:56:24;94943.81;;;-3.68;70.03
11680;BME280;5896;42.686;23.142;2024-01-30T04:58:49;94943.06;;;-3.54;69.96
11680;BME280;5896;42.686;23.142;2024-01-30T05:01:16;94953.44;;;-3.74;70.21
11680;BME280;5896;42.686;23.142;2024-01-30T05:03:41;94951.63;;;-3.72;70.08
11680;BME280;5896;42.686;23.142;2024-01-30T05:06:07;94944.88;;;-3.56;70.43
11680;BME280;5896;42.686;23.142;2024-01-30T05:08:32;94945.13;;;-3.76;70.53
11680;BME280;5896;42.686;23.142;2024-01-30T05:11:00;94959.06;;;-3.85;70.21
11680;BME280;5896;42.686;23.142;2024-01-30T05:13:25;94960.13;;;-3.73;70.33
11680;BME280;5896;42.686;23.142;2024-01-30T05:15:51;94951.31;;;-3.66;69.76
11680;BME280;5896;42.686;23.142;2024-01-30T05:18:16;94951.75;;;-3.74;69.92
11680;BME280;5896;42.686;23.142;2024-01-30T05:20:42;94957.38;;;-4.00;70.80
11680;BME280;5896;42.686;23.142;2024-01-30T05:23:07;94959.66;;;-3.96;70.96
11680;BME280;5896;42.686;23.142;2024-01-30T05:25:33;94960.59;;;-3.98;70.67
11680;BME280;5896;42.686;23.142;2024-01-30T05:27:58;94966.25;;;-4.09;70.93
11680;BME280;5896;42.686;23.142;2024-01-30T05:30:24;94964.34;;;-4.05;71.13
11680;BME280;5896;42.686;23.142;2024-01-30T05:32:49;94960.56;;;-4.12;71.38
11680;BME280;5896;42.686;23.142;2024-01-30T05:35:14;94962.63;;;-4.21;71.61
11680;BME280;5896;42.686;23.142;2024-01-30T05:37:40;94956.22;;;-4.26;71.38
11680;BME280;5896;42.686;23.142;2024-01-30T05:40:07;94953.69;;;-4.26;71.40
11680;BME280;5896;42.686;23.142;2024-01-30T05:42:33;94959.06;;;-4.32;71.41
11680;BME280;5896;42.686;23.142;2024-01-30T05:44:58;94954.34;;;-4.54;71.92
11680;BME280;5896;42.686;23.142;2024-01-30T05:47:23;94965.16;;;-4.36;71.29
11680;BME280;5896;42.686;23.142;2024-01-30T05:49:49;94959.16;;;-4.34;70.92
11680;BME280;5896;42.686;23.142;2024-01-30T05:52:15;94950.38;;;-4.27;70.27
11680;BME280;5896;42.686;23.142;2024-01-30T05:54:40;94954.59;;;-4.27;70.71
11680;BME280;5896;42.686;23.142;2024-01-30T05:57:06;94950.69;;;-4.17;70.99
11680;BME280;5896;42.686;23.142;2024-01-30T05:59:31;94956.22;;;-4.26;71.01
11680;BME280;5896;42.686;23.142;2024-01-30T06:01:57;94956.63;;;-4.34;71.71
11680;BME280;5896;42.686;23.142;2024-01-30T06:04:23;94960.09;;;-4.36;71.44
11680;BME280;5896;42.686;23.142;2024-01-30T06:06:48;94955.06;;;-4.36;71.25
11680;BME280;5896;42.686;23.142;2024-01-30T06:09:14;94962.16;;;-4.27;70.97
11680;BME280;5896;42.686;23.142;2024-01-30T06:11:39;94958.19;;;-4.31;71.45
11680;BME280;5896;42.686;23.142;2024-01-30T06:14:05;94956.63;;;-4.34;70.78
11680;BME280;5896;42.686;23.142;2024-01-30T06:16:30;94971.59;;;-4.31;70.70
11680;BME280;5896;42.686;23.142;2024-01-30T06:18:56;94959.88;;;-4.32;70.93
11680;BME280;5896;42.686;23.142;2024-01-30T06:21:23;94957.28;;;-4.14;70.34
11680;BME280;5896;42.686;23.142;2024-01-30T06:23:48;94970.38;;;-4.08;70.30
11680;BME280;5896;42.686;23.142;2024-01-30T06:26:14;94970.63;;;-4.12;70.33
11680;BME280;5896;42.686;23.142;2024-01-30T06:28:39;94966.81;;;-4.20;70.29
11680;BME280;5896;42.686;23.142;2024-01-30T06:31:04;94963.88;;;-4.12;70.04
11680;BME280;5896;42.686;23.142;2024-01-30T06:33:30;94967.63;;;-4.03;69.79
11680;BME280;5896;42.686;23.142;2024-01-30T06:35:55;94976.59;;;-3.98;70.07
11680;BME280;5896;42.686;23.142;2024-01-30T06:38:20;94972.34;;;-3.97;69.39
11680;BME280;5896;42.686;23.142;2024-01-30T06:40:46;94961.34;;;-3.96;69.71
11680;BME280;5896;42.686;23.142;2024-01-30T06:43:11;94975.97;;;-3.87;69.05
11680;BME280;5896;42.686;23.142;2024-01-30T06:45:37;94962.97;;;-3.95;69.22
11680;BME280;5896;42.686;23.142;2024-01-30T06:48:02;94960.16;;;-4.05;69.81
11680;BME280;5896;42.686;23.142;2024-01-30T06:50:28;94966.81;;;-3.88;69.04
11680;BME280;5896;42.686;23.142;2024-01-30T06:52:53;94967.59;;;-3.87;69.53
11680;BME280;5896;42.686;23.142;2024-01-30T06:55:19;94963.38;;;-3.71;69.40
11680;BME280;5896;42.686;23.142;2024-01-30T06:57:44;94963.78;;;-3.63;68.40
11680;BME280;5896;42.686;23.142;2024-01-30T07:00:10;94967.16;;;-3.48;68.21
11680;BME280;5896;42.686;23.142;2024-01-30T07:02:36;94971.44;;;-3.34;68.01
11680;BME280;5896;42.686;23.142;2024-01-30T07:05:02;94971.66;;;-3.23;67.40
11680;BME280;5896;42.686;23.142;2024-01-30T07:07:28;94973.69;;;-3.30;67.96
11680;BME280;5896;42.686;23.142;2024-01-30T07:09:54;94976.19;;;-3.14;67.78
11680;BME280;5896;42.686;23.142;2024-01-30T07:12:22;94973.94;;;-3.04;67.00
11680;BME280;5896;42.686;23.142;2024-01-30T07:14:48;94976.63;;;-3.07;66.71
11680;BME280;5896;42.686;23.142;2024-01-30T07:17:13;94981.25;;;-3.14;67.32
11680;BME280;5896;42.686;23.142;2024-01-30T07:19:39;94979.81;;;-3.04;67.14
11680;BME280;5896;42.686;23.142;2024-01-30T07:22:04;94972.44;;;-3.07;67.07
11680;BME280;5896;42.686;23.142;2024-01-30T07:24:30;94972.59;;;-2.96;67.29
11680;BME280;5896;42.686;23.142;2024-01-30T07:26:55;94977.06;;;-3.15;67.21
11680;BME280;5896;42.686;23.142;2024-01-30T07:29:20;94978.88;;;-3.17;67.22
11680;BME280;5896;42.686;23.142;2024-01-30T07:31:47;94976.38;;;-3.17;66.73
11680;BME280;5896;42.686;23.142;2024-01-30T07:34:12;94976.84;;;-2.96;65.60
11680;BME280;5896;42.686;23.142;2024-01-30T07:36:37;94979.53;;;-3.13;66.95
11680;BME280;5896;42.686;23.142;2024-01-30T07:39:03;94974.38;;;-3.12;66.69
11680;BME280;5896;42.686;23.142;2024-01-30T07:41:28;94974.38;;;-3.12;66.50
11680;BME280;5896;42.686;23.142;2024-01-30T07:43:54;94957.66;;;-2.99;65.64
11680;BME280;5896;42.686;23.142;2024-01-30T07:46:19;94964.03;;;-2.93;66.12
11680;BME280;5896;42.686;23.142;2024-01-30T07:48:44;94963.25;;;-2.94;66.00
11680;BME280;5896;42.686;23.142;2024-01-30T07:51:10;94965.41;;;-2.73;65.58
11680;BME280;5896;42.686;23.142;2024-01-30T07:53:35;94961.66;;;-2.37;65.54
11680;BME280;5896;42.686;23.142;2024-01-30T07:56:00;94962.69;;;-2.13;62.89
11680;BME280;5896;42.686;23.142;2024-01-30T07:58:26;94952.69;;;-1.60;60.47
11680;BME280;5896;42.686;23.142;2024-01-30T08:00:52;94952.25;;;-1.00;59.05
11680;BME280;5896;42.686;23.142;2024-01-30T08:03:18;94961.00;;;-1.31;58.24
11680;BME280;5896;42.686;23.142;2024-01-30T08:05:44;94940.38;;;-1.00;58.59
11680;BME280;5896;42.686;23.142;2024-01-30T08:08:09;94944.53;;;-0.73;57.36
11680;BME280;5896;42.686;23.142;2024-01-30T08:10:36;94953.16;;;-0.88;57.17
11680;BME280;5896;42.686;23.142;2024-01-30T08:13:01;94956.19;;;-1.09;58.75
11680;BME280;5896;42.686;23.142;2024-01-30T08:15:27;94957.88;;;-1.22;59.78
11680;BME280;5896;42.686;23.142;2024-01-30T08:17:52;94949.09;;;-1.16;57.94
11680;BME280;5896;42.686;23.142;2024-01-30T08:20:23;94958.16;;;-1.39;58.75
11680;BME280;5896;42.686;23.142;2024-01-30T08:22:49;94955.53;;;-1.65;59.55
11680;BME280;5896;42.686;23.142;2024-01-30T08:25:14;94961.50;;;-1.66;60.52
11680;BME280;5896;42.686;23.142;2024-01-30T08:27:39;94961.50;;;-1.66;59.85
11680;BME280;5896;42.686;23.142;2024-01-30T08:30:06;94956.66;;;-1.56;59.20
11680;BME280;5896;42.686;23.142;2024-01-30T08:32:32;94964.09;;;-1.40;59.49
11680;BME280;5896;42.686;23.142;2024-01-30T08:34:58;94970.91;;;-0.88;59.07
11680;BME280;5896;42.686;23.142;2024-01-30T08:37:23;94966.75;;;-0.51;57.18
11680;BME280;5896;42.686;23.142;2024-01-30T08:39:49;94963.72;;;-0.43;57.14
11680;BME280;5896;42.686;23.142;2024-01-30T08:42:14;94967.16;;;-0.44;57.43
11680;BME280;5896;42.686;23.142;2024-01-30T08:44:39;94961.47;;;-0.22;55.64
11680;BME280;5896;42.686;23.142;2024-01-30T08:47:05;94963.41;;;-0.52;56.86
11680;BME280;5896;42.686;23.142;2024-01-30T08:49:31;94956.13;;;0.06;55.23
11680;BME280;5896;42.686;23.142;2024-01-30T08:51:56;94959.59;;;0.29;54.83
11680;BME280;5896;42.686;23.142;2024-01-30T08:54:23;94957.06;;;0.53;52.57
11680;BME280;5896;42.686;23.142;2024-01-30T08:56:49;94975.09;;;0.37;54.75
11680;BME280;5896;42.686;23.142;2024-01-30T08:59:15;94958.19;;;1.19;52.55
11680;BME280;5896;42.686;23.142;2024-01-30T09:01:40;94957.19;;;1.33;51.77
11680;BME280;5896;42.686;23.142;2024-01-30T09:04:06;94972.16;;;1.03;52.31
11680;BME280;5896;42.686;23.142;2024-01-30T09:06:31;94971.66;;;0.97;52.68
11680;BME280;5896;42.686;23.142;2024-01-30T09:08:57;94967.84;;;1.38;50.79
11680;BME280;5896;42.686;23.142;2024-01-30T09:11:23;94983.16;;;1.83;49.80
11680;BME280;5896;42.686;23.142;2024-01-30T09:13:48;94974.00;;;1.01;53.30
11680;BME280;5896;42.686;23.142;2024-01-30T09:16:14;94970.00;;;1.32;50.68
11680;BME280;5896;42.686;23.142;2024-01-30T09:18:41;94968.81;;;1.13;51.23
11680;BME280;5896;42.686;23.142;2024-01-30T09:21:06;94971.97;;;0.34;54.49
11680;BME280;5896;42.686;23.142;2024-01-30T09:23:32;94971.31;;;-0.18;55.16
11680;BME280;5896;42.686;23.142;2024-01-30T09:25:57;94971.13;;;0.09;55.49
11680;BME280;5896;42.686;23.142;2024-01-30T09:28:23;94974.97;;;-0.35;55.17
11680;BME280;5896;42.686;23.142;2024-01-30T09:30:48;94965.75;;;-0.74;57.49
11680;BME280;5896;42.686;23.142;2024-01-30T09:33:14;94969.19;;;-0.88;58.20
11680;BME280;5896;42.686;23.142;2024-01-30T09:35:39;94964.63;;;-0.44;57.31
11680;BME280;5896;42.686;23.142;2024-01-30T09:38:05;94956.59;;;0.11;57.09
11680;BME280;5896;42.686;23.142;2024-01-30T09:40:30;94958.38;;;0.35;55.26
11680;BME280;5896;42.686;23.142;2024-01-30T09:42:55;94958.22;;;0.84;54.04
11680;BME280;5896;42.686;23.142;2024-01-30T09:45:24;94956.47;;;0.73;53.44
11680;BME280;5896;42.686;23.142;2024-01-30T09:47:50;94948.94;;;1.07;51.98
11680;BME280;5896;42.686;23.142;2024-01-30T09:50:16;94954.13;;;0.70;52.48
11680;BME280;5896;42.686;23.142;2024-01-30T09:52:43;94964.19;;;0.24;55.58
11680;BME280;5896;42.686;23.142;2024-01-30T09:55:09;94956.72;;;0.10;55.16
11680;BME280;5896;42.686;23.142;2024-01-30T09:57:35;94956.16;;;-0.19;54.98
11680;BME280;5896;42.686;23.142;2024-01-30T10:00:02;94954.34;;;-0.17;55.99
11680;BME280;5896;42.686;23.142;2024-01-30T10:02:30;94950.75;;;-0.64;56.78
11680;BME280;5896;42.686;23.142;2024-01-30T10:04:56;94955.50;;;-0.85;58.10
11680;BME280;5896;42.686;23.142;2024-01-30T10:07:21;94953.34;;;-0.91;58.08
11680;BME280;5896;42.686;23.142;2024-01-30T10:09:49;94952.78;;;-0.82;58.22
11680;BME280;5896;42.686;23.142;2024-01-30T10:12:15;94939.97;;;-1.06;58.29
11680;BME280;5896;42.686;23.142;2024-01-30T10:14:41;94937.25;;;-0.78;57.66
11680;BME280;5896;42.686;23.142;2024-01-30T10:17:11;94942.31;;;-0.65;57.39
11680;BME280;5896;42.686;23.142;2024-01-30T10:19:41;94938.66;;;-0.74;56.90
11680;BME280;5896;42.686;23.142;2024-01-30T10:22:07;94941.09;;;-0.34;56.72
11680;BME280;5896;42.686;23.142;2024-01-30T10:24:36;94932.69;;;0.27;54.75
11680;BME280;5896;42.686;23.142;2024-01-30T10:27:02;94940.84;;;0.43;53.66
11680;BME280;5896;42.686;23.142;2024-01-30T10:29:27;94942.31;;;0.58;53.23
11680;BME280;5896;42.686;23.142;2024-01-30T10:32:03;94946.56;;;0.34;53.88
11680;BME280;5896;42.686;23.142;2024-01-30T10:34:29;94947.53;;;-0.17;54.16
11680;BME280;5896;42.686;23.142;2024-01-30T10:37:15;94944.28;;;-0.06;53.96
11680;BME280;5896;42.686;23.142;2024-01-30T10:39:42;94944.78;;;-0.14;54.67
11680;BME280;5896;42.686;23.142;2024-01-30T10:42:13;94944.63;;;-0.36;55.33
11680;BME280;5896;42.686;23.142;2024-01-30T10:45:08;94950.09;;;-0.42;54.96
11680;BME280;5896;42.686;23.142;2024-01-30T10:47:34;94943.84;;;-0.62;55.28
11680;BME280;5896;42.686;23.142;2024-01-30T10:50:02;94946.34;;;-0.50;55.59
11680;BME280;5896;42.686;23.142;2024-01-30T10:52:28;94930.75;;;-0.43;55.44
11680;BME280;5896;42.686;23.142;2024-01-30T10:54:55;94922.13;;;-0.04;54.91
11680;BME280;5896;42.686;23.142;2024-01-30T10:57:24;94929.66;;;-0.03;53.88
11680;BME280;5896;42.686;23.142;2024-01-30T10:59:57;94919.94;;;-0.21;55.05
11680;BME280;5896;42.686;23.142;2024-01-30T11:02:23;94908.31;;;0.24;54.58
11680;BME280;5896;42.686;23.142;2024-01-30T11:04:50;94914.75;;;0.41;52.87
11680;BME280;5896;42.686;23.142;2024-01-30T11:07:24;94910.81;;;0.37;53.87
11680;BME280;5896;42.686;23.142;2024-01-30T11:09:59;94903.78;;;0.40;53.69
11680;BME280;5896;42.686;23.142;2024-01-30T11:12:30;94902.41;;;0.83;53.48
11680;BME280;5896;42.686;23.142;2024-01-30T11:15:08;94908.38;;;1.17;53.03
11680;BME280;5896;42.686;23.142;2024-01-30T11:20:16;94894.06;;;1.50;51.18
11680;BME280;5896;42.686;23.142;2024-01-30T11:22:46;94891.88;;;1.67;49.93
11680;BME280;5896;42.686;23.142;2024-01-30T11:25:13;94887.53;;;2.02;50.03
11680;BME280;5896;42.686;23.142;2024-01-30T11:27:39;94892.50;;;1.92;49.76
11680;BME280;5896;42.686;23.142;2024-01-30T11:30:05;94885.13;;;1.66;49.71
11680;BME280;5896;42.686;23.142;2024-01-30T11:32:31;94887.59;;;1.57;50.60
11680;BME280;5896;42.686;23.142;2024-01-30T11:34:56;94891.28;;;1.30;52.03
11680;BME280;5896;42.686;23.142;2024-01-30T11:37:25;94879.56;;;1.84;50.53
11680;BME280;5896;42.686;23.142;2024-01-30T11:39:51;94885.25;;;1.54;49.84
11680;BME280;5896;42.686;23.142;2024-01-30T11:42:19;94878.78;;;1.61;50.26
11680;BME280;5896;42.686;23.142;2024-01-30T11:44:47;94879.44;;;1.85;50.37
11680;BME280;5896;42.686;23.142;2024-01-30T11:47:14;94883.53;;;1.54;51.70
11680;BME280;5896;42.686;23.142;2024-01-30T11:49:40;94886.56;;;2.14;50.90
11680;BME280;5896;42.686;23.142;2024-01-30T11:52:05;94883.28;;;2.23;49.63
11680;BME280;5896;42.686;23.142;2024-01-30T11:54:31;94875.53;;;1.70;51.07
11680;BME280;5896;42.686;23.142;2024-01-30T11:56:56;94884.09;;;1.80;50.17
11680;BME280;5896;42.686;23.142;2024-01-30T11:59:22;94874.09;;;2.64;48.35
11680;BME280;5896;42.686;23.142;2024-01-30T12:01:47;94866.50;;;2.32;48.51
11680;BME280;5896;42.686;23.142;2024-01-30T12:04:13;94872.31;;;2.11;49.48
11680;BME280;5896;42.686;23.142;2024-01-30T12:06:39;94860.56;;;1.88;49.83
11680;BME280;5896;42.686;23.142;2024-01-30T12:09:05;94860.81;;;2.28;50.19
11680;BME280;5896;42.686;23.142;2024-01-30T12:11:43;94853.38;;;2.36;49.27
11680;BME280;5896;42.686;23.142;2024-01-30T12:14:09;94858.28;;;2.28;49.30
11680;BME280;5896;42.686;23.142;2024-01-30T12:16:34;94844.47;;;1.99;48.73
11680;BME280;5896;42.686;23.142;2024-01-30T12:19:00;94841.56;;;2.56;49.77
11680;BME280;5896;42.686;23.142;2024-01-30T12:21:29;94829.88;;;2.33;50.40
11680;BME280;5896;42.686;23.142;2024-01-30T12:23:55;94848.69;;;2.21;49.92
11680;BME280;5896;42.686;23.142;2024-01-30T12:26:21;94846.50;;;2.69;49.19
11680;BME280;5896;42.686;23.142;2024-01-30T12:28:50;94839.47;;;2.61;48.71
11680;BME280;5896;42.686;23.142;2024-01-30T12:31:15;94842.56;;;2.65;47.92
11680;BME280;5896;42.686;23.142;2024-01-30T12:33:40;94837.75;;;2.62;48.90
11680;BME280;5896;42.686;23.142;2024-01-30T12:36:06;94823.41;;;2.29;49.48
11680;BME280;5896;42.686;23.142;2024-01-30T12:38:32;94827.22;;;2.55;48.12
11680;BME280;5896;42.686;23.142;2024-01-30T12:40:57;94833.47;;;2.30;47.46
11680;BME280;5896;42.686;23.142;2024-01-30T12:43:26;94820.81;;;2.61;48.59
11680;BME280;5896;42.686;23.142;2024-01-30T12:45:54;94824.03;;;2.84;48.79
11680;BME280;5896;42.686;23.142;2024-01-30T12:48:19;94827.59;;;2.51;48.35
11680;BME280;5896;42.686;23.142;2024-01-30T12:50:45;94821.88;;;2.79;47.42
11680;BME280;5896;42.686;23.142;2024-01-30T12:53:10;94817.06;;;2.65;48.07
11680;BME280;5896;42.686;23.142;2024-01-30T12:55:38;94816.41;;;2.63;49.50
11680;BME280;5896;42.686;23.142;2024-01-30T12:58:03;94818.59;;;2.47;48.04
11680;BME280;5896;42.686;23.142;2024-01-30T13:00:29;94812.00;;;1.80;48.65